createdAt,value
2018-05-06T04:09:38.269Z,1018.35
2018-05-06T04:10:03.817Z,1018.35
2018-05-06T04:10:29.215Z,1018.32
2018-05-06T04:10:54.678Z,1018.37
2018-05-06T04:11:20.129Z,1018.32
2018-05-06T04:11:45.641Z,1018.37
2018-05-06T04:12:11.125Z,1018.36
2018-05-06T04:12:36.551Z,1018.32
2018-05-06T04:13:02.067Z,1018.38
2018-05-06T04:13:27.733Z,1018.36
2018-05-06T04:13:53.181Z,1018.34
2018-05-06T04:14:18.667Z,1018.36
2018-05-06T04:14:44.128Z,1018.34
2018-05-06T04:15:09.617Z,1018.41
2018-05-06T04:15:35.090Z,1018.43
2018-05-06T04:16:00.526Z,1018.39
2018-05-06T04:16:26.002Z,1018.38
2018-05-06T04:16:51.511Z,1018.39
2018-05-06T04:17:17.046Z,1018.4
2018-05-06T04:17:42.459Z,1018.39
2018-05-06T04:18:08.180Z,1018.37
2018-05-06T04:18:33.661Z,1018.4
2018-05-06T04:18:59.179Z,1018.37
2018-05-06T04:19:24.638Z,1018.38
2018-05-06T04:19:50.115Z,1018.39
2018-05-06T04:20:15.571Z,1018.43
2018-05-06T04:20:41.041Z,1018.41
2018-05-06T04:21:06.549Z,1018.4
2018-05-06T04:21:31.988Z,1018.42
2018-05-06T04:21:57.486Z,1018.38
2018-05-06T04:22:22.950Z,1018.42
2018-05-06T04:22:48.408Z,1018.42
2018-05-06T04:23:13.844Z,1018.4
2018-05-06T04:23:39.284Z,1018.39
2018-05-06T04:24:04.850Z,1018.42
2018-05-06T04:24:30.356Z,1018.43
2018-05-06T04:24:55.748Z,1018.4
2018-05-06T04:25:21.203Z,1018.42
2018-05-06T04:25:46.675Z,1018.48
2018-05-06T04:26:12.155Z,1018.44
2018-05-06T04:26:37.620Z,1018.44
2018-05-06T04:27:03.093Z,1018.4
2018-05-06T04:27:28.527Z,1018.48
2018-05-06T04:27:54.108Z,1018.45
2018-05-06T04:28:19.540Z,1018.45
2018-05-06T04:28:45.053Z,1018.47
2018-05-06T04:29:10.677Z,1018.47
2018-05-06T04:29:36.031Z,1018.47
2018-05-06T04:30:01.637Z,1018.47
2018-05-06T04:30:27.078Z,1018.47
2018-05-06T04:30:52.492Z,1018.5
2018-05-06T04:31:17.982Z,1018.51
2018-05-06T04:31:43.467Z,1018.47
2018-05-06T04:32:08.924Z,1018.48
2018-05-06T04:32:34.412Z,1018.48
2018-05-06T04:32:59.918Z,1018.5
2018-05-06T04:33:25.342Z,1018.49
2018-05-06T04:33:50.846Z,1018.49
2018-05-06T04:34:16.309Z,1018.5
2018-05-06T04:34:41.779Z,1018.49
2018-05-06T04:35:07.253Z,1018.48
2018-05-06T04:35:32.731Z,1018.47
2018-05-06T04:35:58.124Z,1018.46
2018-05-06T04:36:23.658Z,1018.47
2018-05-06T04:36:49.182Z,1018.5
2018-05-06T04:37:14.571Z,1018.5
2018-05-06T04:37:40.064Z,1018.48
2018-05-06T04:38:05.585Z,1018.51
2018-05-06T04:38:31.187Z,1018.51
2018-05-06T04:38:56.624Z,1018.51
2018-05-06T04:39:22.080Z,1018.51
2018-05-06T04:39:47.687Z,1018.51
2018-05-06T04:40:13.128Z,1018.49
2018-05-06T04:40:38.569Z,1018.49
2018-05-06T04:41:04.136Z,1018.52
2018-05-06T04:41:29.537Z,1018.54
2018-05-06T04:41:55.029Z,1018.53
2018-05-06T04:42:20.735Z,1018.48
2018-05-06T04:42:46.113Z,1018.53
2018-05-06T04:43:11.755Z,1018.48
2018-05-06T04:43:37.136Z,1018.53
2018-05-06T04:44:02.720Z,1018.49
2018-05-06T04:44:28.157Z,1018.49
2018-05-06T04:44:53.657Z,1018.54
2018-05-06T04:45:19.080Z,1018.49
2018-05-06T04:45:44.660Z,1018.45
2018-05-06T04:46:10.153Z,1018.47
2018-05-06T04:46:35.569Z,1018.49
2018-05-06T04:47:01.049Z,1018.5
2018-05-06T04:47:26.589Z,1018.5
2018-05-06T04:47:52.009Z,1018.47
2018-05-06T04:48:17.537Z,1018.52
2018-05-06T04:48:43.012Z,1018.5
2018-05-06T04:49:08.517Z,1018.52
2018-05-06T04:49:33.941Z,1018.51
2018-05-06T04:49:59.438Z,1018.52
2018-05-06T04:50:24.930Z,1018.51
2018-05-06T04:50:50.494Z,1018.51
2018-05-06T04:51:15.873Z,1018.56
2018-05-06T04:51:41.404Z,1018.49
2018-05-06T04:52:06.876Z,1018.54
2018-05-06T04:52:32.361Z,1018.56
2018-05-06T04:52:57.764Z,1018.52
2018-05-06T04:53:23.290Z,1018.56
2018-05-06T04:53:48.725Z,1018.57
2018-05-06T04:54:14.181Z,1018.52
2018-05-06T04:54:39.639Z,1018.54
2018-05-06T04:55:05.099Z,1018.52
2018-05-06T04:55:30.595Z,1018.54
2018-05-06T04:55:56.014Z,1018.53
2018-05-06T04:56:21.491Z,1018.58
2018-05-06T04:56:46.965Z,1018.57
2018-05-06T04:57:12.454Z,1018.53
2018-05-06T04:57:37.929Z,1018.54
2018-05-06T04:58:03.421Z,1018.57
2018-05-06T04:58:28.860Z,1018.57
2018-05-06T04:58:54.310Z,1018.6
2018-05-06T04:59:19.760Z,1018.59
2018-05-06T04:59:45.223Z,1018.56
2018-05-06T05:00:10.676Z,1018.55
2018-05-06T05:00:36.164Z,1018.55
2018-05-06T05:01:01.607Z,1018.59
2018-05-06T05:01:27.040Z,1018.6
2018-05-06T05:01:52.529Z,1018.6
2018-05-06T05:02:17.955Z,1018.57
2018-05-06T05:02:43.447Z,1018.61
2018-05-06T05:03:08.908Z,1018.56
2018-05-06T05:03:34.347Z,1018.56
2018-05-06T05:03:59.839Z,1018.64
2018-05-06T05:04:25.318Z,1018.54
2018-05-06T05:04:50.768Z,1018.6
2018-05-06T05:05:16.334Z,1018.61
2018-05-06T05:05:41.797Z,1018.57
2018-05-06T05:06:07.283Z,1018.62
2018-05-06T05:06:32.737Z,1018.57
2018-05-06T05:06:58.310Z,1018.59
2018-05-06T05:07:23.746Z,1018.61
2018-05-06T05:07:49.249Z,1018.55
2018-05-06T05:08:14.772Z,1018.6
2018-05-06T05:08:40.252Z,1018.62
2018-05-06T05:09:05.809Z,1018.56
2018-05-06T05:09:31.273Z,1018.59
2018-05-06T05:09:56.690Z,1018.6
2018-05-06T05:10:22.180Z,1018.6
2018-05-06T05:10:47.639Z,1018.59
2018-05-06T05:11:13.088Z,1018.63
2018-05-06T05:11:38.569Z,1018.55
2018-05-06T05:12:04.110Z,1018.6
2018-05-06T05:12:29.701Z,1018.65
2018-05-06T05:12:55.147Z,1018.65
2018-05-06T05:13:20.568Z,1018.62
2018-05-06T05:13:46.029Z,1018.64
2018-05-06T05:14:11.490Z,1018.65
2018-05-06T05:14:36.981Z,1018.65
2018-05-06T05:15:02.465Z,1018.64
2018-05-06T05:15:27.971Z,1018.66
2018-05-06T05:15:53.464Z,1018.68
2018-05-06T05:16:19.008Z,1018.69
2018-05-06T05:16:44.520Z,1018.66
2018-05-06T05:17:10.104Z,1018.7
2018-05-06T05:17:35.700Z,1018.68
2018-05-06T05:18:01.126Z,1018.71
2018-05-06T05:18:26.636Z,1018.68
2018-05-06T05:18:52.175Z,1018.67
2018-05-06T05:19:17.662Z,1018.71
2018-05-06T05:19:43.213Z,1018.76
2018-05-06T05:20:08.779Z,1018.73
2018-05-06T05:20:34.299Z,1018.72
2018-05-06T05:20:59.822Z,1018.75
2018-05-06T05:21:25.311Z,1018.74
2018-05-06T05:21:50.815Z,1018.74
2018-05-06T05:22:16.333Z,1018.7
2018-05-06T05:22:41.780Z,1018.75
2018-05-06T05:23:07.281Z,1018.71
2018-05-06T05:23:32.705Z,1018.75
2018-05-06T05:23:58.186Z,1018.72
2018-05-06T05:24:23.648Z,1018.72
2018-05-06T05:24:49.077Z,1018.72
2018-05-06T05:25:14.530Z,1018.74
2018-05-06T05:25:40.016Z,1018.7
2018-05-06T05:26:05.520Z,1018.73
2018-05-06T05:26:30.968Z,1018.74
2018-05-06T05:26:56.461Z,1018.78
2018-05-06T05:27:21.922Z,1018.79
2018-05-06T05:27:47.416Z,1018.75
2018-05-06T05:28:12.902Z,1018.8
2018-05-06T05:28:38.355Z,1018.76
2018-05-06T05:29:03.809Z,1018.76
2018-05-06T05:29:29.243Z,1018.75
2018-05-06T05:29:54.710Z,1018.8
2018-05-06T05:30:20.231Z,1018.75
2018-05-06T05:30:45.639Z,1018.79
2018-05-06T05:31:11.234Z,1018.8
2018-05-06T05:31:36.821Z,1018.74
2018-05-06T05:32:02.326Z,1018.73
2018-05-06T05:32:27.775Z,1018.78
2018-05-06T05:32:53.200Z,1018.77
2018-05-06T05:33:18.676Z,1018.78
2018-05-06T05:33:44.107Z,1018.77
2018-05-06T05:34:09.607Z,1018.77
2018-05-06T05:34:35.093Z,1018.78
2018-05-06T05:35:00.538Z,1018.79
2018-05-06T05:35:26.066Z,1018.77
2018-05-06T05:35:51.508Z,1018.83
2018-05-06T05:36:16.945Z,1018.8
2018-05-06T05:36:42.660Z,1018.76
2018-05-06T05:37:08.182Z,1018.82
2018-05-06T05:37:33.600Z,1018.78
2018-05-06T05:37:59.091Z,1018.79
2018-05-06T05:38:24.603Z,1018.79
2018-05-06T05:38:50.053Z,1018.8
2018-05-06T05:39:15.546Z,1018.82
2018-05-06T05:39:41.013Z,1018.85
2018-05-06T05:40:06.529Z,1018.81
2018-05-06T05:40:32.075Z,1018.8
2018-05-06T05:40:57.528Z,1018.82
2018-05-06T05:41:23.083Z,1018.83
2018-05-06T05:41:48.528Z,1018.86
2018-05-06T05:42:14.054Z,1018.87
2018-05-06T05:42:39.494Z,1018.81
2018-05-06T05:43:04.965Z,1018.83
2018-05-06T05:43:30.525Z,1018.87
2018-05-06T05:43:56.004Z,1018.86
2018-05-06T05:44:21.441Z,1018.85
2018-05-06T05:44:46.866Z,1018.86
2018-05-06T05:45:12.349Z,1018.84
2018-05-06T05:45:37.819Z,1018.87
2018-05-06T05:46:03.306Z,1018.9
2018-05-06T05:46:29.355Z,1018.91
2018-05-06T05:46:54.815Z,1018.89
2018-05-06T05:47:20.369Z,1018.88
2018-05-06T05:47:45.930Z,1018.9
2018-05-06T05:48:11.316Z,1018.93
2018-05-06T05:48:36.801Z,1018.93
2018-05-06T05:49:02.228Z,1018.91
2018-05-06T05:49:27.792Z,1018.93
2018-05-06T05:49:53.398Z,1018.96
2018-05-06T05:50:18.795Z,1018.97
2018-05-06T05:50:44.325Z,1018.98
2018-05-06T05:51:09.814Z,1018.93
2018-05-06T05:51:35.544Z,1018.93
2018-05-06T05:52:01.036Z,1018.96
2018-05-06T05:52:26.634Z,1018.98
2018-05-06T05:52:52.267Z,1019.03
2018-05-06T05:53:17.831Z,1019.02
2018-05-06T05:53:43.513Z,1019.03
2018-05-06T05:54:08.992Z,1018.98
2018-05-06T05:54:34.650Z,1018.99
2018-05-06T05:55:00.009Z,1018.98
2018-05-06T05:55:25.814Z,1019
2018-05-06T05:55:51.131Z,1019.01
2018-05-06T05:56:16.756Z,1018.97
2018-05-06T05:56:42.306Z,1019
2018-05-06T05:57:07.903Z,1019.01
2018-05-06T05:57:33.370Z,1019.03
2018-05-06T05:57:58.840Z,1019.01
2018-05-06T05:58:24.297Z,1019.06
2018-05-06T05:58:49.793Z,1019.04
2018-05-06T05:59:15.252Z,1019.03
2018-05-06T05:59:40.718Z,1019.03
2018-05-06T06:00:06.209Z,1019
2018-05-06T06:00:31.617Z,1019.06
2018-05-06T06:00:57.087Z,1019
2018-05-06T06:01:22.593Z,1019.03
2018-05-06T06:01:48.068Z,1019
2018-05-06T06:02:13.724Z,1019.01
2018-05-06T06:02:39.282Z,1019
2018-05-06T06:03:04.845Z,1019.01
2018-05-06T06:03:30.331Z,1019.08
2018-05-06T06:03:55.873Z,1019.04
2018-05-06T06:04:21.417Z,1019.03
2018-05-06T06:04:46.895Z,1019.04
2018-05-06T06:05:12.391Z,1019.07
2018-05-06T06:05:37.971Z,1019.04
2018-05-06T06:06:03.460Z,1019.03
2018-05-06T06:06:28.966Z,1019.06
2018-05-06T06:06:54.525Z,1019.04
2018-05-06T06:07:19.960Z,1019.08
2018-05-06T06:07:45.487Z,1019.08
2018-05-06T06:08:10.962Z,1019.04
2018-05-06T06:08:36.413Z,1019.09
2018-05-06T06:09:02.483Z,1019.07
2018-05-06T06:09:27.994Z,1019.06
2018-05-06T06:09:53.415Z,1019.09
2018-05-06T06:10:18.902Z,1019.12
2018-05-06T06:10:44.636Z,1019.1
2018-05-06T06:11:10.186Z,1019.08
2018-05-06T06:11:35.645Z,1019.13
2018-05-06T06:12:01.592Z,1019.14
2018-05-06T06:12:27.159Z,1019.11
2018-05-06T06:12:52.663Z,1019.19
2018-05-06T06:13:18.117Z,1019.24
2018-05-06T06:13:43.601Z,1019.13
2018-05-06T06:14:09.177Z,1019.13
2018-05-06T06:14:35.592Z,1019.16
2018-05-06T06:15:00.182Z,1019.18
2018-05-06T06:15:25.648Z,1019.2
2018-05-06T06:15:51.178Z,1019.18
2018-05-06T06:16:16.575Z,1019.16
2018-05-06T06:16:42.106Z,1019.2
2018-05-06T06:17:07.527Z,1019.16
2018-05-06T06:17:33.223Z,1019.18
2018-05-06T06:17:58.680Z,1019.15
2018-05-06T06:18:24.153Z,1019.18
2018-05-06T06:18:49.616Z,1019.17
2018-05-06T06:19:15.100Z,1019.16
2018-05-06T06:19:40.572Z,1019.22
2018-05-06T06:20:06.017Z,1019.18
2018-05-06T06:20:31.546Z,1019.22
2018-05-06T06:20:56.977Z,1019.19
2018-05-06T06:21:22.508Z,1019.2
2018-05-06T06:21:47.967Z,1019.19
2018-05-06T06:22:13.518Z,1019.16
2018-05-06T06:22:39.013Z,1019.17
2018-05-06T06:23:04.475Z,1019.19
2018-05-06T06:23:29.922Z,1019.21
2018-05-06T06:23:55.447Z,1019.21
2018-05-06T06:24:21.008Z,1019.16
2018-05-06T06:24:46.496Z,1019.16
2018-05-06T06:25:11.911Z,1019.17
2018-05-06T06:25:37.370Z,1019.19
2018-05-06T06:26:02.828Z,1019.16
2018-05-06T06:26:28.323Z,1019.16
2018-05-06T06:26:53.783Z,1019.25
2018-05-06T06:27:19.210Z,1019.17
2018-05-06T06:27:44.694Z,1019.16
2018-05-06T06:28:10.233Z,1019.13
2018-05-06T06:28:35.706Z,1019.18
2018-05-06T06:29:01.222Z,1019.18
2018-05-06T06:29:26.654Z,1019.25
2018-05-06T06:29:52.147Z,1019.25
2018-05-06T06:30:17.673Z,1019.21
2018-05-06T06:30:43.120Z,1019.26
2018-05-06T06:31:08.598Z,1019.2
2018-05-06T06:31:34.072Z,1019.2
2018-05-06T06:31:59.568Z,1019.2
2018-05-06T06:32:25.250Z,1019.21
2018-05-06T06:32:50.705Z,1019.21
2018-05-06T06:33:16.301Z,1019.21
2018-05-06T06:33:41.742Z,1019.21
2018-05-06T06:34:07.198Z,1019.25
2018-05-06T06:34:32.722Z,1019.26
2018-05-06T06:34:58.209Z,1019.25
2018-05-06T06:35:23.695Z,1019.24
2018-05-06T06:35:49.166Z,1019.23
2018-05-06T06:36:14.613Z,1019.22
2018-05-06T06:36:40.045Z,1019.26
2018-05-06T06:37:05.529Z,1019.23
2018-05-06T06:37:31.128Z,1019.24
2018-05-06T06:37:56.604Z,1019.22
2018-05-06T06:38:22.129Z,1019.2
2018-05-06T06:38:47.590Z,1019.19
2018-05-06T06:39:13.079Z,1019.25
2018-05-06T06:39:38.516Z,1019.19
2018-05-06T06:40:04.009Z,1019.23
2018-05-06T06:40:29.510Z,1019.19
2018-05-06T06:40:55.057Z,1019.19
2018-05-06T06:41:20.545Z,1019.16
2018-05-06T06:41:46.236Z,1019.15
2018-05-06T06:42:11.695Z,1019.16
2018-05-06T06:42:37.281Z,1019.14
2018-05-06T06:43:02.795Z,1019.15
2018-05-06T06:43:28.288Z,1019.16
2018-05-06T06:43:53.924Z,1019.11
2018-05-06T06:44:19.402Z,1019.17
2018-05-06T06:44:46.153Z,1019.08
2018-05-06T06:45:11.807Z,1019.1
2018-05-06T06:45:37.657Z,1019.06
2018-05-06T06:46:03.446Z,1019.07
2018-05-06T06:46:28.934Z,1019.08
2018-05-06T06:46:54.409Z,1019.04
2018-05-06T06:47:19.834Z,1019.05
2018-05-06T06:47:45.422Z,1019.05
2018-05-06T06:48:10.912Z,1019.08
2018-05-06T06:48:36.381Z,1019.11
2018-05-06T06:49:01.930Z,1019.03
2018-05-06T06:49:27.500Z,1019.09
2018-05-06T06:49:52.899Z,1019.05
2018-05-06T06:50:18.389Z,1019.06
2018-05-06T06:50:43.893Z,1019.04
2018-05-06T06:51:09.366Z,1019.05
2018-05-06T06:51:34.842Z,1019.06
2018-05-06T06:52:00.326Z,1019.07
2018-05-06T06:52:25.750Z,1019.14
2018-05-06T06:52:51.229Z,1019.07
2018-05-06T06:53:16.714Z,1019.08
2018-05-06T06:53:42.204Z,1019.1
2018-05-06T06:54:07.779Z,1019.12
2018-05-06T06:54:33.157Z,1019.05
2018-05-06T06:54:58.653Z,1019.08
2018-05-06T06:55:24.133Z,1019.11
2018-05-06T06:55:49.663Z,1019.13
2018-05-06T06:56:15.064Z,1019.11
2018-05-06T06:56:40.547Z,1019.11
2018-05-06T06:57:06.000Z,1019.11
2018-05-06T06:57:31.462Z,1019.14
2018-05-06T06:57:56.941Z,1019.13
2018-05-06T06:58:22.376Z,1019.14
2018-05-06T06:58:47.887Z,1019.12
2018-05-06T06:59:13.346Z,1019.15
2018-05-06T06:59:38.838Z,1019.15
2018-05-06T07:00:04.366Z,1019.13
2018-05-06T07:00:29.844Z,1019.12
2018-05-06T07:00:55.314Z,1019.11
2018-05-06T07:01:20.779Z,1019.09
2018-05-06T07:01:46.224Z,1019.1
2018-05-06T07:02:11.679Z,1019.09
2018-05-06T07:02:37.225Z,1019.11
2018-05-06T07:03:02.701Z,1019.11
2018-05-06T07:03:28.182Z,1019.1
2018-05-06T07:03:53.821Z,1019.17
2018-05-06T07:04:19.280Z,1019.07
2018-05-06T07:04:44.714Z,1019.12
2018-05-06T07:05:10.226Z,1019.1
2018-05-06T07:05:35.718Z,1019.11
2018-05-06T07:06:01.166Z,1019.1
2018-05-06T07:06:26.680Z,1019.15
2018-05-06T07:06:52.151Z,1019.12
2018-05-06T07:07:17.716Z,1019.13
2018-05-06T07:07:43.480Z,1019.14
2018-05-06T07:08:08.873Z,1019.17
2018-05-06T07:08:34.459Z,1019.17
2018-05-06T07:08:59.893Z,1019.2
2018-05-06T07:09:25.355Z,1019.17
2018-05-06T07:09:50.786Z,1019.2
2018-05-06T07:10:16.292Z,1019.16
2018-05-06T07:10:41.751Z,1019.17
2018-05-06T07:11:07.202Z,1019.21
2018-05-06T07:11:32.730Z,1019.21
2018-05-06T07:11:58.157Z,1019.18
2018-05-06T07:12:23.614Z,1019.21
2018-05-06T07:12:49.148Z,1019.21
2018-05-06T07:13:14.731Z,1019.2
2018-05-06T07:13:40.185Z,1019.19
2018-05-06T07:14:05.675Z,1019.21
2018-05-06T07:14:31.385Z,1019.24
2018-05-06T07:14:56.833Z,1019.31
2018-05-06T07:15:22.261Z,1019.29
2018-05-06T07:15:47.852Z,1019.3
2018-05-06T07:16:14.176Z,1019.35
2018-05-06T07:16:39.727Z,1019.32
2018-05-06T07:17:05.249Z,1019.34
2018-05-06T07:17:30.778Z,1019.31
2018-05-06T07:17:56.264Z,1019.27
2018-05-06T07:18:21.703Z,1019.33
2018-05-06T07:18:47.347Z,1019.27
2018-05-06T07:19:12.991Z,1019.28
2018-05-06T07:19:38.448Z,1019.28
2018-05-06T07:20:03.968Z,1019.31
2018-05-06T07:20:29.535Z,1019.27
2018-05-06T07:20:55.011Z,1019.23
2018-05-06T07:21:20.526Z,1019.26
2018-05-06T07:21:46.125Z,1019.26
2018-05-06T07:22:11.689Z,1019.23
2018-05-06T07:22:37.245Z,1019.24
2018-05-06T07:23:02.752Z,1019.31
2018-05-06T07:23:28.315Z,1019.25
2018-05-06T07:23:53.786Z,1019.23
2018-05-06T07:24:19.253Z,1019.25
2018-05-06T07:24:44.852Z,1019.29
2018-05-06T07:25:10.438Z,1019.27
2018-05-06T07:25:35.944Z,1019.3
2018-05-06T07:26:01.461Z,1019.28
2018-05-06T07:26:26.955Z,1019.3
2018-05-06T07:26:52.529Z,1019.29
2018-05-06T07:27:18.042Z,1019.3
2018-05-06T07:27:43.576Z,1019.33
2018-05-06T07:28:09.116Z,1019.32
2018-05-06T07:28:34.659Z,1019.32
2018-05-06T07:29:00.153Z,1019.33
2018-05-06T07:29:25.702Z,1019.35
2018-05-06T07:29:51.190Z,1019.36
2018-05-06T07:30:16.773Z,1019.3
2018-05-06T07:30:42.577Z,1019.4
2018-05-06T07:31:07.958Z,1019.31
2018-05-06T07:31:33.580Z,1019.37
2018-05-06T07:31:59.081Z,1019.4
2018-05-06T07:32:24.588Z,1019.35
2018-05-06T07:32:50.157Z,1019.4
2018-05-06T07:33:15.675Z,1019.44
2018-05-06T07:33:41.147Z,1019.47
2018-05-06T07:34:06.874Z,1019.42
2018-05-06T07:34:32.403Z,1019.41
2018-05-06T07:34:57.995Z,1019.38
2018-05-06T07:35:23.459Z,1019.42
2018-05-06T07:35:49.110Z,1019.42
2018-05-06T07:36:14.546Z,1019.38
2018-05-06T07:36:40.087Z,1019.37
2018-05-06T07:37:05.822Z,1019.37
2018-05-06T07:37:31.421Z,1019.4
2018-05-06T07:37:56.959Z,1019.42
2018-05-06T07:38:22.571Z,1019.41
2018-05-06T07:38:48.198Z,1019.48
2018-05-06T07:39:13.794Z,1019.41
2018-05-06T07:39:39.228Z,1019.45
2018-05-06T07:40:04.887Z,1019.4
2018-05-06T07:40:30.881Z,1019.45
2018-05-06T07:40:56.658Z,1019.43
2018-05-06T07:41:22.859Z,1019.47
2018-05-06T07:41:48.442Z,1019.52
2018-05-06T07:42:14.043Z,1019.44
2018-05-06T07:42:39.762Z,1019.5
2018-05-06T07:43:05.260Z,1019.52
2018-05-06T07:43:30.889Z,1019.54
2018-05-06T07:43:56.360Z,1019.48
2018-05-06T07:44:22.263Z,1019.49
2018-05-06T07:44:47.819Z,1019.51
2018-05-06T07:45:13.385Z,1019.47
2018-05-06T07:45:39.027Z,1019.45
2018-05-06T07:46:04.664Z,1019.46
2018-05-06T07:46:30.149Z,1019.47
2018-05-06T07:46:55.647Z,1019.51
2018-05-06T07:47:21.233Z,1019.47
2018-05-06T07:47:46.746Z,1019.45
2018-05-06T07:48:12.304Z,1019.48
2018-05-06T07:48:37.860Z,1019.49
2018-05-06T07:49:03.504Z,1019.4
2018-05-06T07:49:28.977Z,1019.4
2018-05-06T07:49:55.156Z,1019.49
2018-05-06T07:50:54.363Z,1019.44
2018-05-06T07:51:19.571Z,1019.38
2018-05-06T07:51:45.379Z,1019.51
2018-05-06T07:52:10.798Z,1019.48
2018-05-06T07:52:36.766Z,1019.41
2018-05-06T07:53:02.947Z,1019.36
2018-05-06T07:53:28.403Z,1019.37
2018-05-06T07:53:54.771Z,1019.31
2018-05-06T07:54:20.615Z,1019.3
2018-05-06T07:54:46.296Z,1019.35
2018-05-06T07:55:11.919Z,1019.33
2018-05-06T07:55:38.265Z,1019.26
2018-05-06T07:56:04.009Z,1019.4
2018-05-06T07:56:29.606Z,1019.32
2018-05-06T07:56:55.915Z,1019.3
2018-05-06T07:57:22.039Z,1019.35
2018-05-06T07:57:47.588Z,1019.3
2018-05-06T07:58:38.252Z,1019.28
